Peanut, California
Current Conditions -  °F | °C
As of 4:35 PM on Sunday 21 Dec 2014 (Local Time) from KO54 Reporting Station
Scattered Clouds Scattered Clouds  
Wind Chill: 57°   Ceiling: Unl
Heat Index: 57°   Visibility: 10mi
Dew Point: 50°   Wind: 8mph
Humidity: 77%   Direction: 190°S
Pressure: 30.22"   Gusts: 16mph
Location:  40.5348°N, 123.175°W
Report Text: KO54 220035Z AUTO 19007G14KT 160V220 10SM SCT055 SCT065 14/10 A3022 RMK AO1
Loading
Personal Weather Stations






























Interactive Weather Map New forecast layout! Learn more

10-Day Weather Forecast

Advertisements
Track Severe Weather on mobile